createdAt,value
2022-12-20T00:00:37.421Z,994.13
2022-12-20T00:01:37.736Z,994.12
2022-12-20T00:02:37.378Z,994.07
2022-12-20T00:03:37.171Z,994.07
2022-12-20T00:04:37.114Z,994.08
2022-12-20T00:05:37.045Z,994.09
2022-12-20T00:06:36.934Z,994.02
2022-12-20T00:07:36.841Z,994.00
2022-12-20T00:08:36.756Z,994.03
2022-12-20T00:09:36.672Z,994.03
2022-12-20T00:10:36.590Z,994.02
2022-12-20T00:11:36.523Z,993.96
2022-12-20T00:12:36.429Z,993.97
2022-12-20T00:13:36.341Z,993.94
2022-12-20T00:14:36.260Z,993.94
2022-12-20T00:15:36.178Z,993.90
2022-12-20T00:16:36.101Z,993.88
2022-12-20T00:17:36.088Z,993.90
2022-12-20T00:18:35.928Z,993.83
2022-12-20T00:19:35.842Z,993.86
2022-12-20T00:20:35.785Z,993.85
2022-12-20T00:21:35.676Z,993.89
2022-12-20T00:22:35.598Z,993.81
2022-12-20T00:23:35.558Z,993.78
2022-12-20T00:24:35.433Z,993.72
2022-12-20T00:25:35.360Z,993.76
2022-12-20T00:26:35.276Z,993.71
2022-12-20T00:27:35.179Z,993.72
2022-12-20T00:28:35.105Z,993.74
2022-12-20T00:29:35.017Z,993.76
2022-12-20T00:30:34.932Z,993.66
2022-12-20T00:31:34.881Z,993.66
2022-12-20T00:32:34.778Z,993.64
2022-12-20T00:33:34.681Z,993.63
2022-12-20T00:34:34.596Z,993.58
2022-12-20T00:35:34.512Z,993.58
2022-12-20T00:36:34.465Z,993.57
2022-12-20T00:37:34.352Z,993.59
2022-12-20T00:38:34.258Z,993.58
2022-12-20T00:39:34.183Z,993.57
2022-12-20T00:40:34.094Z,993.56
2022-12-20T00:41:34.084Z,993.53
2022-12-20T00:42:33.942Z,993.55
2022-12-20T00:43:33.848Z,993.53
2022-12-20T00:44:33.760Z,993.54
2022-12-20T00:45:33.831Z,993.54
2022-12-20T00:46:33.717Z,993.55
2022-12-20T00:47:33.511Z,993.55
2022-12-20T00:48:33.434Z,993.56
2022-12-20T00:49:33.348Z,993.55
2022-12-20T00:50:33.264Z,993.51
2022-12-20T00:51:33.176Z,993.47
2022-12-20T00:52:33.119Z,993.48
2022-12-20T00:53:33.006Z,993.45
2022-12-20T00:54:32.930Z,993.47
2022-12-20T00:55:32.845Z,993.50
2022-12-20T00:56:32.766Z,993.52
2022-12-20T00:57:32.677Z,993.53
2022-12-20T00:58:32.590Z,993.57
2022-12-20T00:59:32.515Z,993.57
2022-12-20T01:00:32.427Z,993.55
2022-12-20T01:01:32.582Z,993.58
2022-12-20T01:02:32.486Z,993.54
2022-12-20T01:03:32.260Z,993.54
2022-12-20T01:04:32.095Z,993.62
2022-12-20T01:05:32.013Z,993.57
2022-12-20T01:06:31.927Z,993.58
2022-12-20T01:07:31.836Z,993.59
2022-12-20T01:08:31.773Z,993.63
2022-12-20T01:09:31.680Z,993.63
2022-12-20T01:10:31.584Z,993.62
2022-12-20T01:11:31.508Z,993.64
2022-12-20T01:12:31.417Z,993.62
2022-12-20T01:13:31.335Z,993.62
2022-12-20T01:14:31.247Z,993.60
2022-12-20T01:15:31.176Z,993.64
2022-12-20T01:16:31.141Z,993.71
2022-12-20T01:17:31.012Z,993.73
2022-12-20T01:18:30.909Z,993.71
2022-12-20T01:19:30.830Z,993.75
2022-12-20T01:20:30.745Z,993.77
2022-12-20T01:21:30.658Z,993.74
2022-12-20T01:22:30.589Z,993.76
2022-12-20T01:23:30.491Z,993.73
2022-12-20T01:24:30.424Z,993.69
2022-12-20T01:25:30.337Z,993.63
2022-12-20T01:26:30.278Z,993.65
2022-12-20T01:27:30.156Z,993.61
2022-12-20T01:28:30.067Z,993.59
2022-12-20T01:30:29.904Z,993.63
2022-12-20T01:31:30.010Z,993.57
2022-12-20T01:32:29.732Z,993.56
2022-12-20T01:33:29.647Z,993.51
2022-12-20T01:34:29.567Z,993.51
2022-12-20T01:35:29.480Z,993.50
2022-12-20T01:36:29.431Z,993.48
2022-12-20T01:37:29.309Z,993.48
2022-12-20T01:38:29.229Z,993.46
2022-12-20T01:39:29.149Z,993.44
2022-12-20T01:40:29.080Z,993.44
2022-12-20T01:41:29.012Z,993.39
2022-12-20T01:42:28.890Z,993.41
2022-12-20T01:43:28.805Z,993.42
2022-12-20T01:44:28.726Z,993.43
2022-12-20T01:45:31.671Z,993.43
2022-12-20T01:46:28.678Z,993.39
2022-12-20T01:47:28.467Z,993.45
2022-12-20T01:48:28.386Z,993.43
2022-12-20T01:49:28.296Z,993.46
2022-12-20T01:50:28.229Z,993.42
2022-12-20T01:51:28.127Z,993.37
2022-12-20T01:52:28.049Z,993.43
2022-12-20T01:53:27.964Z,993.45
2022-12-20T01:54:27.907Z,993.44
2022-12-20T01:55:27.795Z,993.42
2022-12-20T01:56:27.731Z,993.42
2022-12-20T01:57:27.626Z,993.44
2022-12-20T01:58:27.544Z,993.44
2022-12-20T01:59:27.455Z,993.43
2022-12-20T02:00:27.375Z,993.42
2022-12-20T02:01:27.412Z,993.46
2022-12-20T02:02:27.318Z,993.44
2022-12-20T02:03:27.237Z,993.40
2022-12-20T02:04:27.081Z,993.36
2022-12-20T02:05:27.099Z,993.41
2022-12-20T02:06:26.870Z,993.44
2022-12-20T02:07:26.782Z,993.44
2022-12-20T02:08:26.706Z,993.47
2022-12-20T02:09:26.623Z,993.43
2022-12-20T02:10:26.531Z,993.43
2022-12-20T02:11:26.454Z,993.43
2022-12-20T02:12:26.387Z,993.38
2022-12-20T02:13:26.297Z,993.34
2022-12-20T02:14:26.205Z,993.33
2022-12-20T02:15:26.115Z,993.33
2022-12-20T02:16:26.075Z,993.31
2022-12-20T02:17:25.947Z,993.24
2022-12-20T02:18:25.863Z,993.29
2022-12-20T02:19:25.776Z,993.30
2022-12-20T02:20:25.698Z,993.28
2022-12-20T02:21:25.626Z,993.30
2022-12-20T02:22:25.527Z,993.29
2022-12-20T02:23:25.442Z,993.33
2022-12-20T02:24:25.359Z,993.26
2022-12-20T02:25:25.279Z,993.25
2022-12-20T02:26:25.195Z,993.30
2022-12-20T02:27:25.107Z,993.24
2022-12-20T02:28:25.050Z,993.21
2022-12-20T02:29:25.951Z,993.17
2022-12-20T02:30:24.862Z,993.10
2022-12-20T02:31:24.835Z,993.07
2022-12-20T02:32:24.692Z,993.06
2022-12-20T02:33:24.610Z,992.99
2022-12-20T02:34:24.527Z,992.95
2022-12-20T02:35:24.440Z,992.91
2022-12-20T02:36:24.368Z,992.83
2022-12-20T02:37:24.276Z,992.86
2022-12-20T02:38:24.196Z,992.80
2022-12-20T02:39:24.110Z,992.78
2022-12-20T02:40:24.028Z,992.81
2022-12-20T02:41:23.948Z,992.80
2022-12-20T02:42:23.865Z,992.80
2022-12-20T02:43:23.778Z,992.75
2022-12-20T02:44:23.721Z,992.78
2022-12-20T02:45:23.610Z,992.74
2022-12-20T02:46:23.602Z,992.76
2022-12-20T02:47:23.461Z,992.76
2022-12-20T02:48:23.365Z,992.81
2022-12-20T02:49:23.280Z,992.81
2022-12-20T02:50:23.197Z,992.76
2022-12-20T02:51:23.124Z,992.75
2022-12-20T02:52:23.036Z,992.72
2022-12-20T02:53:22.945Z,992.73
2022-12-20T02:54:22.868Z,992.73
2022-12-20T02:55:22.784Z,992.77
2022-12-20T02:56:22.699Z,992.83
2022-12-20T02:57:22.652Z,992.81
2022-12-20T02:58:22.539Z,992.83
2022-12-20T02:59:22.454Z,992.79
2022-12-20T03:00:22.397Z,992.78
2022-12-20T03:01:22.408Z,992.75
2022-12-20T03:02:22.411Z,992.76
2022-12-20T03:03:22.219Z,992.69
2022-12-20T03:04:22.034Z,992.74
2022-12-20T03:05:21.953Z,992.71
2022-12-20T03:06:21.870Z,992.75
2022-12-20T03:07:21.787Z,992.77
2022-12-20T03:08:21.709Z,992.79
2022-12-20T03:09:21.622Z,992.77
2022-12-20T03:10:21.542Z,992.74
2022-12-20T03:11:21.455Z,992.75
2022-12-20T03:12:21.372Z,992.74
2022-12-20T03:13:21.341Z,992.74
2022-12-20T03:14:21.222Z,992.72
2022-12-20T03:15:21.122Z,992.72
2022-12-20T03:16:21.099Z,992.71
2022-12-20T03:17:20.960Z,992.73
2022-12-20T03:18:20.900Z,992.71
2022-12-20T03:19:20.791Z,992.70
2022-12-20T03:20:20.810Z,992.75
2022-12-20T03:21:20.626Z,992.75
2022-12-20T03:22:20.583Z,992.74
2022-12-20T03:23:20.476Z,992.70
2022-12-20T03:24:20.410Z,992.71
2022-12-20T03:25:20.354Z,992.71
2022-12-20T03:26:20.244Z,992.68
2022-12-20T03:27:20.136Z,992.63
2022-12-20T03:28:20.059Z,992.64
2022-12-20T03:29:19.969Z,992.64
2022-12-20T03:30:19.918Z,992.58
2022-12-20T03:31:19.895Z,992.57
2022-12-20T03:32:19.748Z,992.52
2022-12-20T03:33:19.641Z,992.50
2022-12-20T03:34:19.556Z,992.46
2022-12-20T03:35:19.484Z,992.52
2022-12-20T03:36:19.391Z,992.52
2022-12-20T03:37:19.307Z,992.52
2022-12-20T03:38:19.230Z,992.47
2022-12-20T03:39:19.142Z,992.47
2022-12-20T03:40:19.075Z,992.47
2022-12-20T03:41:18.981Z,992.45
2022-12-20T03:42:18.896Z,992.45
2022-12-20T03:43:18.811Z,992.44
2022-12-20T03:44:18.788Z,992.44
2022-12-20T03:45:18.647Z,992.48
2022-12-20T03:46:18.622Z,992.44
2022-12-20T03:47:18.482Z,992.49
2022-12-20T03:48:18.520Z,992.48
2022-12-20T03:49:18.322Z,992.55
2022-12-20T03:50:18.239Z,992.59
2022-12-20T03:51:18.151Z,992.55
2022-12-20T03:52:18.069Z,992.53
2022-12-20T03:53:17.997Z,992.50
2022-12-20T03:54:17.907Z,992.52
2022-12-20T03:55:17.820Z,992.47
2022-12-20T03:56:17.740Z,992.51
2022-12-20T03:57:17.653Z,992.49
2022-12-20T03:58:17.574Z,992.50
2022-12-20T03:59:17.495Z,992.47
2022-12-20T04:00:17.407Z,992.42
2022-12-20T04:01:17.350Z,992.44
2022-12-20T04:02:17.435Z,992.46
2022-12-20T04:03:17.312Z,992.44
2022-12-20T04:04:17.100Z,992.41
2022-12-20T04:05:16.991Z,992.46
2022-12-20T04:06:16.911Z,992.43
2022-12-20T04:07:16.828Z,992.38
2022-12-20T04:08:16.747Z,992.35
2022-12-20T04:09:16.664Z,992.27
2022-12-20T04:10:16.581Z,992.29
2022-12-20T04:11:16.560Z,992.32
2022-12-20T04:12:16.415Z,992.35
2022-12-20T04:13:16.335Z,992.36
2022-12-20T04:14:16.256Z,992.41
2022-12-20T04:15:16.169Z,992.41
2022-12-20T04:16:16.187Z,992.44
2022-12-20T04:17:16.102Z,992.41
2022-12-20T04:18:15.921Z,992.44
2022-12-20T04:19:15.842Z,992.42
2022-12-20T04:20:15.780Z,992.38
2022-12-20T04:21:15.672Z,992.38
2022-12-20T04:22:15.592Z,992.30
2022-12-20T04:23:15.509Z,992.39
2022-12-20T04:24:15.426Z,992.42
2022-12-20T04:25:15.344Z,992.40
2022-12-20T04:26:15.259Z,992.42
2022-12-20T04:27:15.182Z,992.47
2022-12-20T04:28:15.095Z,992.42
2022-12-20T04:29:15.010Z,992.42
2022-12-20T04:30:14.938Z,992.34
2022-12-20T04:31:19.930Z,992.35
2022-12-20T04:32:14.764Z,992.36
2022-12-20T04:33:14.681Z,992.37
2022-12-20T04:34:14.601Z,992.40
2022-12-20T04:35:14.518Z,992.43
2022-12-20T04:36:14.454Z,992.40
2022-12-20T04:37:14.365Z,992.37
2022-12-20T04:38:14.274Z,992.33
2022-12-20T04:39:14.186Z,992.34
2022-12-20T04:40:14.127Z,992.32
2022-12-20T04:41:14.023Z,992.24
2022-12-20T04:42:13.949Z,992.19
2022-12-20T04:43:13.857Z,992.15
2022-12-20T04:44:13.777Z,992.16
2022-12-20T04:45:13.844Z,992.14
2022-12-20T04:46:13.685Z,992.11
2022-12-20T04:47:13.528Z,992.10
2022-12-20T04:48:46.233Z,992.08
2022-12-20T04:49:13.363Z,992.07
2022-12-20T04:50:13.281Z,992.03
2022-12-20T04:51:13.199Z,992.04
2022-12-20T04:52:13.135Z,992.02
2022-12-20T04:53:13.033Z,992.02
2022-12-20T04:54:12.951Z,992.06
2022-12-20T04:55:12.895Z,992.08
2022-12-20T04:56:12.785Z,992.08
2022-12-20T04:57:12.704Z,992.05
2022-12-20T04:58:12.625Z,992.04
2022-12-20T04:59:12.540Z,992.05
2022-12-20T05:00:12.462Z,992.06
2022-12-20T05:01:12.515Z,992.00
2022-12-20T05:02:12.532Z,992.01
2022-12-20T05:03:12.449Z,992.02
2022-12-20T05:04:12.195Z,992.00
2022-12-20T05:05:12.061Z,991.99
2022-12-20T05:06:11.967Z,991.98
2022-12-20T05:07:11.895Z,991.92
2022-12-20T05:08:11.814Z,991.95
2022-12-20T05:09:11.716Z,991.98
2022-12-20T05:10:11.632Z,992.00
2022-12-20T05:11:11.557Z,991.99
2022-12-20T05:12:11.468Z,992.00
2022-12-20T05:13:11.385Z,992.00
2022-12-20T05:14:11.304Z,992.01
2022-12-20T05:15:11.219Z,992.03
2022-12-20T05:16:11.217Z,992.04
2022-12-20T05:17:11.054Z,992.02
2022-12-20T05:18:10.972Z,992.01
2022-12-20T05:19:10.888Z,992.09
2022-12-20T05:20:10.807Z,992.07
2022-12-20T05:21:10.723Z,992.07
2022-12-20T05:22:10.645Z,992.07
2022-12-20T05:23:10.560Z,992.09
2022-12-20T05:24:10.493Z,992.08
2022-12-20T05:25:10.399Z,992.09
2022-12-20T05:26:10.354Z,992.06
2022-12-20T05:27:10.229Z,992.01
2022-12-20T05:28:10.147Z,992.00
2022-12-20T05:29:10.065Z,991.98
2022-12-20T05:30:09.988Z,991.99
2022-12-20T05:31:09.939Z,991.98
2022-12-20T05:32:09.820Z,992.01
2022-12-20T05:33:09.751Z,991.98
2022-12-20T05:34:09.648Z,992.00
2022-12-20T05:35:09.568Z,991.99
2022-12-20T05:36:09.490Z,991.97
2022-12-20T05:37:09.403Z,991.98
2022-12-20T05:38:09.321Z,991.98
2022-12-20T05:39:09.236Z,992.02
2022-12-20T05:40:09.198Z,991.99
2022-12-20T05:41:09.074Z,992.06
2022-12-20T05:42:08.995Z,992.02
2022-12-20T05:43:08.915Z,992.05
2022-12-20T05:44:08.827Z,992.03
2022-12-20T05:45:08.747Z,991.99
2022-12-20T05:46:08.686Z,991.98
2022-12-20T05:47:08.647Z,991.95
2022-12-20T05:48:08.493Z,991.97
2022-12-20T05:49:08.409Z,991.95
2022-12-20T05:50:12.322Z,991.99
2022-12-20T05:51:08.253Z,991.99
2022-12-20T05:52:08.172Z,992.01
2022-12-20T05:53:11.939Z,992.00
2022-12-20T05:54:08.004Z,992.03
2022-12-20T05:55:07.975Z,992.03
2022-12-20T05:56:07.859Z,992.05
2022-12-20T05:57:07.750Z,992.02
2022-12-20T05:58:07.672Z,992.07
2022-12-20T05:59:07.591Z,992.05
2022-12-20T06:00:07.508Z,992.04
2022-12-20T06:01:07.430Z,992.07
2022-12-20T06:02:07.483Z,992.01
2022-12-20T06:03:07.403Z,992.01
2022-12-20T06:04:07.282Z,991.98
2022-12-20T06:05:07.097Z,991.98
2022-12-20T06:06:13.614Z,991.94
2022-12-20T06:07:06.943Z,991.94
2022-12-20T06:08:06.862Z,991.94
2022-12-20T06:09:06.760Z,991.93
2022-12-20T06:10:06.678Z,991.96
2022-12-20T06:11:06.598Z,991.89
2022-12-20T06:12:06.532Z,991.91
2022-12-20T06:13:06.435Z,991.91
2022-12-20T06:14:06.348Z,991.87
2022-12-20T06:15:06.268Z,991.89
2022-12-20T06:16:06.376Z,991.89
2022-12-20T06:17:06.111Z,991.90
2022-12-20T06:18:06.062Z,991.87
2022-12-20T06:19:05.938Z,991.84
2022-12-20T06:20:05.875Z,991.87
2022-12-20T06:21:05.771Z,991.87
2022-12-20T06:22:05.692Z,991.90
2022-12-20T06:23:05.608Z,991.87
2022-12-20T06:24:05.525Z,991.85
2022-12-20T06:25:05.444Z,991.84
2022-12-20T06:26:05.359Z,991.87
2022-12-20T06:27:05.277Z,991.81
2022-12-20T06:28:05.249Z,991.82
2022-12-20T06:29:05.113Z,991.78
2022-12-20T06:30:05.034Z,991.81
2022-12-20T06:31:04.961Z,991.73
2022-12-20T06:32:04.902Z,991.77
2022-12-20T06:33:04.815Z,991.76
2022-12-20T06:34:04.708Z,991.76
2022-12-20T06:35:04.640Z,991.74
2022-12-20T06:36:04.535Z,991.73
2022-12-20T06:37:04.453Z,991.79
2022-12-20T06:38:04.369Z,991.81
2022-12-20T06:39:09.443Z,991.81
2022-12-20T06:40:04.205Z,991.76
2022-12-20T06:41:04.121Z,991.71
2022-12-20T06:42:04.045Z,991.75
2022-12-20T06:43:03.963Z,991.73
2022-12-20T06:44:03.919Z,991.72
2022-12-20T06:45:03.796Z,991.68
2022-12-20T06:46:03.802Z,991.64
2022-12-20T06:47:03.645Z,991.61
2022-12-20T06:48:03.563Z,991.62
2022-12-20T06:49:03.470Z,991.57
2022-12-20T06:50:03.391Z,991.53
2022-12-20T06:51:03.295Z,991.55
2022-12-20T06:52:03.219Z,991.55
2022-12-20T06:53:03.135Z,991.55
2022-12-20T06:54:03.062Z,991.56
2022-12-20T06:55:02.967Z,991.54
2022-12-20T06:56:02.881Z,991.47
2022-12-20T06:57:02.801Z,991.50
2022-12-20T06:58:02.721Z,991.49
2022-12-20T06:59:02.641Z,991.49
2022-12-20T07:00:02.636Z,991.53
2022-12-20T07:01:02.587Z,991.53
2022-12-20T07:02:02.944Z,991.55
2022-12-20T07:03:02.391Z,991.53
2022-12-20T07:04:02.222Z,991.56
2022-12-20T07:05:02.140Z,991.56
2022-12-20T07:06:02.053Z,991.57
2022-12-20T07:07:02.072Z,991.57
2022-12-20T07:08:01.889Z,991.58
2022-12-20T07:09:01.809Z,991.61
2022-12-20T07:10:01.729Z,991.63
2022-12-20T07:11:01.651Z,991.69
2022-12-20T07:12:01.570Z,991.65
2022-12-20T07:13:01.680Z,991.67
2022-12-20T07:14:01.397Z,991.70
2022-12-20T07:15:01.313Z,991.69
2022-12-20T07:16:01.446Z,991.70
2022-12-20T07:17:01.253Z,991.70
2022-12-20T07:18:01.074Z,991.68
2022-12-20T07:19:00.988Z,991.74
2022-12-20T07:20:00.952Z,991.75
2022-12-20T07:21:00.841Z,991.75
2022-12-20T07:22:00.740Z,991.74
2022-12-20T07:23:00.656Z,991.73
2022-12-20T07:24:00.576Z,991.69
2022-12-20T07:25:00.494Z,991.70
2022-12-20T07:26:00.409Z,991.75
2022-12-20T07:27:00.357Z,991.72
2022-12-20T07:28:00.247Z,991.71
2022-12-20T07:29:00.171Z,991.74
2022-12-20T07:30:00.090Z,991.78
2022-12-20T07:31:00.004Z,991.77
2022-12-20T07:31:59.965Z,991.84
2022-12-20T07:32:59.848Z,991.84
2022-12-20T07:33:59.758Z,991.85
2022-12-20T07:34:59.671Z,991.89
2022-12-20T07:35:59.581Z,991.85
2022-12-20T07:36:59.731Z,991.83
2022-12-20T07:37:59.420Z,991.83
2022-12-20T07:38:59.338Z,991.84
2022-12-20T07:39:59.260Z,991.80
2022-12-20T07:40:59.178Z,991.81
2022-12-20T07:41:59.159Z,991.80
2022-12-20T07:42:59.011Z,991.78
2022-12-20T07:43:58.953Z,991.76
2022-12-20T07:44:58.853Z,991.74
2022-12-20T07:45:58.866Z,991.69
2022-12-20T07:46:58.680Z,991.68
2022-12-20T07:48:04.898Z,991.69
2022-12-20T07:48:58.522Z,991.69
2022-12-20T07:49:58.439Z,991.64
2022-12-20T07:50:58.377Z,991.63
2022-12-20T07:51:58.277Z,991.64
2022-12-20T07:52:58.192Z,991.66
2022-12-20T07:53:58.114Z,991.66
2022-12-20T07:54:58.026Z,991.65
2022-12-20T07:55:57.941Z,991.68
2022-12-20T07:56:57.858Z,991.72
2022-12-20T07:57:57.775Z,991.71
2022-12-20T07:58:57.764Z,991.70
2022-12-20T07:59:57.619Z,991.66
2022-12-20T08:00:57.579Z,991.71
2022-12-20T08:02:03.966Z,991.76
2022-12-20T08:02:57.572Z,991.76
2022-12-20T08:03:57.388Z,991.74
2022-12-20T08:04:57.204Z,991.74
2022-12-20T08:05:57.126Z,991.76
2022-12-20T08:06:57.041Z,991.73
2022-12-20T08:07:59.378Z,991.80
2022-12-20T08:08:56.873Z,991.81
2022-12-20T08:09:56.790Z,991.77
2022-12-20T08:10:56.710Z,991.73
2022-12-20T08:11:56.622Z,991.72
2022-12-20T08:12:56.568Z,991.67
2022-12-20T08:13:58.384Z,991.64
2022-12-20T08:14:56.544Z,991.64
2022-12-20T08:15:56.295Z,991.64
2022-12-20T08:16:56.317Z,991.65
2022-12-20T08:17:56.146Z,991.63
2022-12-20T08:18:56.049Z,991.61
2022-12-20T08:19:55.985Z,991.54
2022-12-20T08:20:55.884Z,991.48
2022-12-20T08:21:55.802Z,991.43
2022-12-20T08:22:55.724Z,991.42
2022-12-20T08:23:55.645Z,991.37
2022-12-20T08:24:55.556Z,991.29
2022-12-20T08:25:55.493Z,991.32
2022-12-20T08:26:55.392Z,991.30
2022-12-20T08:27:55.304Z,991.29
2022-12-20T08:28:55.239Z,991.30
2022-12-20T08:29:55.144Z,991.30
2022-12-20T08:30:55.117Z,991.32
2022-12-20T08:31:54.979Z,991.33
2022-12-20T08:32:54.900Z,991.32
2022-12-20T08:33:54.818Z,991.39
2022-12-20T08:34:54.763Z,991.39
2022-12-20T08:35:54.784Z,991.41
2022-12-20T08:36:54.570Z,991.34
2022-12-20T08:37:54.487Z,991.36
2022-12-20T08:38:54.406Z,991.35
2022-12-20T08:39:54.320Z,991.29
2022-12-20T08:40:54.242Z,991.23
2022-12-20T08:41:54.161Z,991.26
2022-12-20T08:42:54.080Z,991.28
2022-12-20T08:43:53.990Z,991.23
2022-12-20T08:44:53.945Z,991.22
2022-12-20T08:45:53.913Z,991.26
2022-12-20T08:46:53.748Z,991.28
2022-12-20T08:47:53.668Z,991.36
2022-12-20T08:48:53.602Z,991.38
2022-12-20T08:49:53.504Z,991.37
2022-12-20T08:50:53.445Z,991.33
2022-12-20T08:51:53.361Z,991.34
2022-12-20T08:52:53.256Z,991.35
2022-12-20T08:53:53.380Z,991.34
2022-12-20T08:54:53.098Z,991.33
2022-12-20T08:55:53.008Z,991.30
2022-12-20T08:56:52.928Z,991.29
2022-12-20T08:57:52.853Z,991.24
2022-12-20T08:58:52.767Z,991.24
2022-12-20T08:59:52.687Z,991.22
2022-12-20T09:00:52.605Z,991.20
2022-12-20T09:01:52.708Z,991.16
2022-12-20T09:02:52.594Z,991.17
2022-12-20T09:03:52.414Z,991.16
2022-12-20T09:04:52.283Z,991.13
2022-12-20T09:05:52.225Z,991.15
2022-12-20T09:06:52.124Z,991.12
2022-12-20T09:07:52.056Z,991.10
2022-12-20T09:08:51.948Z,991.11
2022-12-20T09:09:51.868Z,991.09
2022-12-20T09:10:51.785Z,991.12
2022-12-20T09:11:51.703Z,991.13
2022-12-20T09:12:51.630Z,991.18
2022-12-20T09:13:51.544Z,991.22
2022-12-20T09:14:51.459Z,991.20
2022-12-20T09:15:51.425Z,991.16
2022-12-20T09:16:51.304Z,991.13
2022-12-20T09:17:51.221Z,991.08
2022-12-20T09:18:51.135Z,991.08
2022-12-20T09:19:51.054Z,991.10
2022-12-20T09:20:50.970Z,991.08
2022-12-20T09:21:50.890Z,991.07
2022-12-20T09:22:50.807Z,991.04
2022-12-20T09:23:50.751Z,990.99
2022-12-20T09:24:50.647Z,990.97
2022-12-20T09:25:53.953Z,990.86
2022-12-20T09:26:50.587Z,990.82
2022-12-20T09:27:50.402Z,990.80
2022-12-20T09:28:50.323Z,990.78
2022-12-20T09:29:50.242Z,990.83
2022-12-20T09:30:50.250Z,990.77
2022-12-20T09:31:50.079Z,990.79
2022-12-20T09:32:49.994Z,990.78
2022-12-20T09:33:49.922Z,990.86
2022-12-20T09:34:49.843Z,990.86
2022-12-20T09:35:49.792Z,990.88
2022-12-20T09:36:49.671Z,990.83
2022-12-20T09:37:49.593Z,990.85
2022-12-20T09:38:49.516Z,990.84
2022-12-20T09:39:49.460Z,990.95
2022-12-20T09:40:49.360Z,990.98
2022-12-20T09:41:49.276Z,990.99
2022-12-20T09:42:49.190Z,990.99
2022-12-20T09:43:49.107Z,991.03
2022-12-20T09:44:49.029Z,991.06
2022-12-20T09:45:48.956Z,991.10
2022-12-20T09:46:48.964Z,991.12
2022-12-20T09:47:48.788Z,991.14
2022-12-20T09:48:49.321Z,991.10
2022-12-20T09:49:48.625Z,991.09
2022-12-20T09:50:48.547Z,991.07
2022-12-20T09:51:48.466Z,991.13
2022-12-20T09:52:48.383Z,991.08
2022-12-20T09:53:48.302Z,991.05
2022-12-20T09:54:48.227Z,990.99
2022-12-20T09:55:48.166Z,990.98
2022-12-20T09:56:48.062Z,990.98
2022-12-20T09:57:47.996Z,990.97
2022-12-20T09:58:47.902Z,990.98
2022-12-20T09:59:49.968Z,990.95
2022-12-20T10:00:53.479Z,990.96
2022-12-20T10:01:47.719Z,990.93
2022-12-20T10:03:00.593Z,990.95
2022-12-20T10:03:47.741Z,990.99
2022-12-20T10:04:47.704Z,990.96
2022-12-20T10:05:47.615Z,990.98
2022-12-20T10:06:47.262Z,990.95
2022-12-20T10:07:47.194Z,990.93
2022-12-20T10:08:47.102Z,990.96
2022-12-20T10:09:47.036Z,990.88
2022-12-20T10:10:46.949Z,990.86
2022-12-20T10:11:50.706Z,990.86
2022-12-20T10:12:46.783Z,990.85
2022-12-20T10:13:46.705Z,990.83
2022-12-20T10:14:46.626Z,990.83
2022-12-20T10:15:46.583Z,990.75
2022-12-20T10:16:46.487Z,990.72
2022-12-20T10:17:46.385Z,990.73
2022-12-20T10:18:46.315Z,990.78
2022-12-20T10:19:46.237Z,990.75
2022-12-20T10:20:46.165Z,990.73
2022-12-20T10:21:46.067Z,990.77
2022-12-20T10:22:45.984Z,990.76
2022-12-20T10:23:45.910Z,990.72
2022-12-20T10:24:45.824Z,990.73
2022-12-20T10:25:45.747Z,990.73
2022-12-20T10:26:45.665Z,990.71
2022-12-20T10:27:45.637Z,990.73
2022-12-20T10:28:50.761Z,990.73
2022-12-20T10:29:45.434Z,990.68
2022-12-20T10:30:45.346Z,990.72
2022-12-20T10:31:45.341Z,990.72
2022-12-20T10:32:45.208Z,990.70
2022-12-20T10:33:45.107Z,990.73
2022-12-20T10:34:48.503Z,990.72
2022-12-20T10:35:44.960Z,990.70
2022-12-20T10:36:44.870Z,990.63
2022-12-20T10:38:06.274Z,990.61
2022-12-20T10:38:44.714Z,990.55
2022-12-20T10:39:44.648Z,990.53
2022-12-20T10:41:44.530Z,990.54
2022-12-20T10:42:44.397Z,990.54
2022-12-20T10:43:44.379Z,990.53
2022-12-20T10:44:44.235Z,990.53
2022-12-20T10:45:44.155Z,990.51
2022-12-20T10:46:44.177Z,990.52
2022-12-20T10:47:44.000Z,990.56
2022-12-20T10:48:43.929Z,990.57
2022-12-20T10:49:43.843Z,990.53
2022-12-20T10:50:43.765Z,990.54
2022-12-20T10:51:43.683Z,990.49
2022-12-20T10:52:43.602Z,990.48
2022-12-20T10:53:43.526Z,990.50
2022-12-20T10:54:43.473Z,990.47
2022-12-20T10:55:43.368Z,990.51
2022-12-20T10:56:43.288Z,990.52
2022-12-20T10:57:43.210Z,990.56
2022-12-20T10:58:43.128Z,990.56
2022-12-20T10:59:43.073Z,990.57
2022-12-20T11:00:42.969Z,990.59
2022-12-20T11:01:43.005Z,990.52
2022-12-20T11:02:43.306Z,990.52
2022-12-20T11:03:42.884Z,990.55
2022-12-20T11:04:42.656Z,990.57
2022-12-20T11:05:42.577Z,990.53
2022-12-20T11:06:42.506Z,990.55
2022-12-20T11:07:50.401Z,990.49
2022-12-20T11:08:51.208Z,990.44
2022-12-20T11:09:42.261Z,990.46
2022-12-20T11:10:42.188Z,990.42
2022-12-20T11:11:42.103Z,990.45
2022-12-20T11:12:42.024Z,990.45
2022-12-20T11:13:41.948Z,990.44
2022-12-20T11:14:41.879Z,990.45
2022-12-20T11:15:41.903Z,990.40
2022-12-20T11:16:41.894Z,990.38
2022-12-20T11:17:41.631Z,990.32
2022-12-20T11:18:41.549Z,990.29
2022-12-20T11:19:41.475Z,990.32
2022-12-20T11:20:41.391Z,990.32
2022-12-20T11:21:41.320Z,990.25
2022-12-20T11:22:41.235Z,990.22
2022-12-20T11:23:41.155Z,990.25
2022-12-20T11:24:41.073Z,990.15
2022-12-20T11:25:40.995Z,990.18
2022-12-20T11:26:40.921Z,990.21
2022-12-20T11:27:40.838Z,990.17
2022-12-20T11:28:40.758Z,990.13
2022-12-20T11:29:40.699Z,990.19
2022-12-20T11:30:40.605Z,990.22
2022-12-20T11:31:40.632Z,990.24
2022-12-20T11:32:46.423Z,990.22
2022-12-20T11:33:40.365Z,990.24
2022-12-20T11:34:40.283Z,990.27
2022-12-20T11:35:40.205Z,990.26
2022-12-20T11:36:40.127Z,990.22
2022-12-20T11:37:40.049Z,990.14
2022-12-20T11:38:39.969Z,990.08
2022-12-20T11:39:39.889Z,990.03
2022-12-20T11:40:39.816Z,990.02
2022-12-20T11:41:39.731Z,989.95
2022-12-20T11:42:39.652Z,989.99
2022-12-20T11:44:08.191Z,989.97
2022-12-20T11:44:47.292Z,989.94
2022-12-20T11:45:39.502Z,989.93
2022-12-20T11:46:39.424Z,989.95
2022-12-20T11:47:39.285Z,989.97
2022-12-20T11:48:39.184Z,989.88
2022-12-20T11:49:39.103Z,989.88
2022-12-20T11:50:39.019Z,989.89
2022-12-20T11:51:38.949Z,989.86
2022-12-20T11:52:38.868Z,989.84
2022-12-20T11:53:38.786Z,989.78
2022-12-20T11:54:38.711Z,989.76
2022-12-20T11:55:38.639Z,989.80
2022-12-20T11:56:43.738Z,989.80
2022-12-20T11:58:09.007Z,989.79
2022-12-20T11:58:38.390Z,989.80
2022-12-20T11:59:38.312Z,989.80
2022-12-20T12:00:38.238Z,989.87
2022-12-20T12:01:38.268Z,989.89
2022-12-20T12:02:38.153Z,989.84
2022-12-20T12:03:38.018Z,989.87
2022-12-20T12:04:37.916Z,989.82
2022-12-20T12:05:37.922Z,989.79
2022-12-20T12:06:37.760Z,989.83
2022-12-20T12:07:37.684Z,989.80
2022-12-20T12:08:37.599Z,989.82
2022-12-20T12:09:37.523Z,989.83
2022-12-20T12:10:37.450Z,989.84
2022-12-20T12:12:05.997Z,989.83
2022-12-20T12:12:37.289Z,989.81
2022-12-20T12:13:37.206Z,989.82
2022-12-20T12:14:37.128Z,989.83
2022-12-20T12:15:37.077Z,989.81
2022-12-20T12:16:37.040Z,989.81
2022-12-20T12:17:36.903Z,989.74
2022-12-20T12:18:36.811Z,989.71
2022-12-20T12:19:36.755Z,989.70
2022-12-20T12:20:36.658Z,989.62
2022-12-20T12:21:36.573Z,989.59
2022-12-20T12:22:36.503Z,989.60
2022-12-20T12:23:36.415Z,989.61
2022-12-20T12:24:36.349Z,989.60
2022-12-20T12:25:36.268Z,989.52
2022-12-20T12:26:36.182Z,989.50
2022-12-20T12:27:36.103Z,989.50
2022-12-20T12:28:36.038Z,989.46
2022-12-20T12:29:35.946Z,989.49